Time;durP1;ratioP1;P1;durP2;ratioP2;P2;SDS_P1;SDS_P2;PMS_P1;PMS_P2;Temp;Humidity;BMP_temperature;BMP_pressure;BME280_temperature;BME280_humidity;BME280_pressure;Samples;Min_cycle;Max_cycle;Signal;HPM_P1;HPM_P2
2022/05/28 00:01:40;;;;;;;15.63;2.58;;;;;;;;;;4348372;33;20027;-79
2022/05/28 00:04:07;;;;;;;11.80;2.75;;;;;;;;;;4348273;33;20381;-79
2022/05/28 00:06:33;;;;;;;10.75;3.60;;;;;;;;;;4346950;33;20020;-79
2022/05/28 00:08:59;;;;;;;12.48;2.83;;;;;;;;;;4348278;32;20031;-80
2022/05/28 00:11:32;;;;;;;18.40;3.58;;;;;;;;;;4334660;33;20382;-80
2022/05/28 00:14:08;;;;;;;12.93;2.90;;;;;;;;;;4347592;33;20407;-80
2022/05/28 00:16:36;;;;;;;16.08;3.40;;;;;;;;;;4347723;33;20023;-80
2022/05/28 00:19:02;;;;;;;14.15;3.12;;;;;;;;;;4347916;33;20073;-78
2022/05/28 00:21:30;;;;;;;10.90;2.90;;;;;;;;;;4334859;33;20161;-79
2022/05/28 00:24:13;;;;;;;14.55;2.92;;;;;;;;;;4348577;33;20024;-79
2022/05/28 00:26:41;;;;;;;13.65;3.20;;;;;;;;;;4348967;33;20036;-79
2022/05/28 00:29:25;;;;;;;9.77;3.22;;;;;;;;;;4348311;33;20023;-78
2022/05/28 00:31:50;;;;;;;11.48;2.85;;;;;;;;;;4347954;33;20065;-79
2022/05/28 00:34:16;;;;;;;16.52;3.25;;;;;;;;;;4347902;33;20058;-79
2022/05/28 00:36:41;;;;;;;;;;;;;;;;;;4347522;33;20055;-79
2022/05/28 00:39:07;;;;;;;11.02;3.10;;;;;;;;;;4347803;33;19962;-80
2022/05/28 00:41:32;;;;;;;;;;;;;;;;;;4347172;33;20123;-80
2022/05/28 00:43:57;;;;;;;12.27;2.97;;;;;;;;;;4347113;33;19935;-79
2022/05/28 00:46:27;;;;;;;17.75;3.53;;;;;;;;;;4346713;33;20401;-78
2022/05/28 00:48:57;;;;;;;13.38;3.03;;;;;;;;;;4346733;33;20046;-78
2022/05/28 00:51:28;;;;;;;17.67;3.97;;;;;;;;;;4333478;33;20464;-78
2022/05/28 00:53:59;;;;;;;19.33;3.70;;;;;;;;;;4346063;33;20023;-78
2022/05/28 00:56:25;;;;;;;14.68;3.65;;;;;;;;;;4347494;33;20055;-77
2022/05/28 00:58:53;;;;;;;17.60;4.03;;;;;;;;;;4346741;33;20082;-78
2022/05/28 01:01:20;;;;;;;14.82;3.40;;;;;;;;;;4346170;33;20031;-80
2022/05/28 01:03:45;;;;;;;19.25;4.07;;;;;;;;;;4346103;33;20032;-80
2022/05/28 01:06:16;;;;;;;17.10;3.78;;;;;;;;;;4346085;33;20032;-79
2022/05/28 01:12:15;;;;;;;;;;;;;;;;;;;;;
2022/05/28 01:15:08;;;;;;;17.30;4.37;;;;;;;;;;4313996;33;20059;-80
2022/05/28 01:20:56;;;;;;;21.85;3.15;;;;;;;;;;4315294;33;20070;-79
2022/05/28 01:29:55;;;;;;;16.92;3.67;;;;;;;;;;4346416;33;20027;-78
2022/05/28 01:35:49;;;;;;;15.82;3.28;;;;;;;;;;4301717;33;20119;-79
2022/05/28 01:38:15;;;;;;;19.58;3.03;;;;;;;;;;4315059;33;20075;-79
2022/05/28 01:40:41;;;;;;;17.90;4.10;;;;;;;;;;4339147;33;20032;-79
2022/05/28 02:00:31;;;;;;;20.27;4.00;;;;;;;;;;4317194;33;20113;-79
2022/05/28 02:02:58;;;;;;;18.83;5.82;;;;;;;;;;4323189;33;20059;-80
2022/05/28 02:05:23;;;;;;;28.10;3.95;;;;;;;;;;4347911;33;20107;-80
2022/05/28 02:07:49;;;;;;;23.65;4.28;;;;;;;;;;4348462;33;20058;-78
2022/05/28 02:10:14;;;;;;;;;;;;;;;;;;4348587;33;20059;-79
2022/05/28 02:22:20;;;;;;;19.02;4.03;;;;;;;;;;4287840;33;20036;-79
2022/05/28 02:25:00;;;;;;;18.40;4.32;;;;;;;;;;4287611;33;20040;-79
2022/05/28 02:27:44;;;;;;;22.05;3.78;;;;;;;;;;4275646;33;20127;-79
2022/05/28 02:30:10;;;;;;;19.05;3.92;;;;;;;;;;4332748;33;20028;-79
2022/05/28 02:32:35;;;;;;;16.00;3.15;;;;;;;;;;4348106;33;20101;-78
2022/05/28 02:35:00;;;;;;;28.33;6.05;;;;;;;;;;4347581;33;20091;-79
2022/05/28 02:37:27;;;;;;;23.00;3.90;;;;;;;;;;4348070;33;20070;-79
2022/05/28 02:39:53;;;;;;;21.55;3.22;;;;;;;;;;4347534;33;20389;-78
2022/05/28 02:42:21;;;;;;;16.17;3.10;;;;;;;;;;4348124;33;20024;-79
2022/05/28 02:44:47;;;;;;;23.48;3.53;;;;;;;;;;4348087;33;20043;-78
2022/05/28 02:47:12;;;;;;;22.80;3.62;;;;;;;;;;4347940;33;20136;-78
2022/05/28 02:49:37;;;;;;;;;;;;;;;;;;4334883;33;20046;-78
2022/05/28 02:52:12;;;;;;;18.40;3.40;;;;;;;;;;4348205;33;19973;-79
2022/05/28 02:54:48;;;;;;;20.95;4.47;;;;;;;;;;4348093;33;20024;-79
2022/05/28 02:57:13;;;;;;;;;;;;;;;;;;4344852;33;20028;-78
2022/05/28 02:59:39;;;;;;;20.12;4.07;;;;;;;;;;4347608;33;20223;-79
2022/05/28 03:02:04;;;;;;;;;;;;;;;;;;4348360;33;20066;-78
2022/05/28 03:04:49;;;;;;;14.98;3.15;;;;;;;;;;4347561;33;19935;-78
2022/05/28 03:07:14;;;;;;;17.02;3.03;;;;;;;;;;4340033;33;20122;-79
2022/05/28 03:09:40;;;;;;;15.43;3.28;;;;;;;;;;4347417;33;20028;-78
2022/05/28 03:12:05;;;;;;;18.45;2.92;;;;;;;;;;4347328;33;20399;-78
2022/05/28 03:14:44;;;;;;;;;;;;;;;;;;;;;
2022/05/28 03:19:59;;;;;;;11.55;2.72;;;;;;;;;;4347221;33;20062;-80
2022/05/28 03:22:50;;;;;;;11.57;2.05;;;;;;;;;;4348289;33;20101;-79
2022/05/28 03:31:24;;;;;;;6.37;1.92;;;;;;;;;;4347331;33;20043;-79
2022/05/28 03:33:58;;;;;;;9.32;2.35;;;;;;;;;;4346809;33;20418;-79
2022/05/28 03:36:27;;;;;;;8.25;1.77;;;;;;;;;;4347519;33;20479;-79
2022/05/28 03:38:55;;;;;;;11.90;2.55;;;;;;;;;;4333267;33;20081;-79
2022/05/28 03:41:40;;;;;;;12.43;3.17;;;;;;;;;;4346863;33;20019;-79
2022/05/28 03:44:26;;;;;;;7.45;2.12;;;;;;;;;;4347214;33;20035;-79
2022/05/28 03:47:11;;;;;;;13.20;3.17;;;;;;;;;;4346407;33;20050;-79
2022/05/28 04:11:38;;;;;;;11.43;1.80;;;;;;;;;;4244712;33;20052;-79
2022/05/28 04:14:04;;;;;;;7.53;1.73;;;;;;;;;;4251346;33;20041;-79
2022/05/28 04:22:43;;;;;;;8.32;1.60;;;;;;;;;;4314745;33;20030;-79
2022/05/28 04:25:39;;;;;;;7.82;2.17;;;;;;;;;;4313372;33;20047;-79
2022/05/28 04:28:18;;;;;;;;;;;;;;;;;;;;;
2022/05/28 04:30:55;;;;;;;10.48;1.98;;;;;;;;;;4314526;33;20072;-78
2022/05/28 04:33:20;;;;;;;7.70;1.67;;;;;;;;;;4312089;33;20084;-78
2022/05/28 04:35:46;;;;;;;5.78;1.50;;;;;;;;;;4301001;33;20051;-78
2022/05/28 04:38:11;;;;;;;8.35;1.60;;;;;;;;;;4330894;33;20036;-79
2022/05/28 04:41:04;;;;;;;;;;;;;;;;;;;;;
2022/05/28 04:43:29;;;;;;;8.68;1.85;;;;;;;;;;4331746;33;20036;-79
2022/05/28 04:45:55;;;;;;;5.12;1.70;;;;;;;;;;4331463;33;20049;-79
2022/05/28 04:58:11;;;;;;;8.70;2.03;;;;;;;;;;4187247;34;20047;-79
2022/05/28 05:00:37;;;;;;;5.57;1.85;;;;;;;;;;4238521;33;20055;-80
2022/05/28 05:03:22;;;;;;;8.23;1.62;;;;;;;;;;4268638;33;20034;-78
2022/05/28 05:05:48;;;;;;;7.05;3.05;;;;;;;;;;4253041;33;20518;-78
2022/05/28 05:08:13;;;;;;;7.35;2.40;;;;;;;;;;4256828;33;20030;-78
2022/05/28 05:11:04;;;;;;;6.62;1.65;;;;;;;;;;4256577;33;20025;-78
2022/05/28 05:13:33;;;;;;;5.25;1.83;;;;;;;;;;4268534;33;20037;-78
2022/05/28 05:16:18;;;;;;;9.85;2.28;;;;;;;;;;4269981;33;20033;-80
2022/05/28 05:18:44;;;;;;;5.85;1.55;;;;;;;;;;4281085;33;20139;-79
2022/05/28 05:21:18;;;;;;;7.93;2.42;;;;;;;;;;4285005;33;20044;-79
2022/05/28 05:23:43;;;;;;;12.40;2.75;;;;;;;;;;4317604;33;20070;-78
2022/05/28 05:26:11;;;;;;;11.90;2.65;;;;;;;;;;4345515;33;20090;-78
2022/05/28 05:28:39;;;;;;;11.25;1.70;;;;;;;;;;4345452;33;20058;-79
2022/05/28 05:31:04;;;;;;;12.07;2.17;;;;;;;;;;4345772;33;20049;-79
2022/05/28 05:33:29;;;;;;;6.78;1.60;;;;;;;;;;4347157;33;20046;-78
2022/05/28 05:35:55;;;;;;;;;;;;;;;;;;4349139;33;20024;-79
2022/05/28 05:38:26;;;;;;;10.63;1.80;;;;;;;;;;4334917;33;19939;-78
2022/05/28 05:40:58;;;;;;;12.00;2.45;;;;;;;;;;4347053;33;20436;-79
2022/05/28 05:43:23;;;;;;;7.18;1.55;;;;;;;;;;4348480;33;20028;-80
2022/05/28 05:45:57;;;;;;;7.60;1.73;;;;;;;;;;4348775;33;20023;-78
2022/05/28 05:48:33;;;;;;;13.45;2.17;;;;;;;;;;4348950;33;20020;-78
2022/05/28 05:51:40;;;;;;;7.72;2.40;;;;;;;;;;4349133;33;20062;-74
2022/05/28 05:54:17;;;;;;;8.35;2.00;;;;;;;;;;4304937;33;20490;-78
2022/05/28 05:56:45;;;;;;;7.03;2.12;;;;;;;;;;4316801;33;20135;-77
2022/05/28 05:59:11;;;;;;;4.22;1.60;;;;;;;;;;4304818;33;20047;-77
2022/05/28 06:01:39;;;;;;;6.05;1.90;;;;;;;;;;4317038;33;20032;-77
2022/05/28 06:04:32;;;;;;;8.20;2.00;;;;;;;;;;4336091;33;20075;-78
2022/05/28 06:07:01;;;;;;;12.27;1.90;;;;;;;;;;4347967;33;20043;-78
2022/05/28 06:09:28;;;;;;;8.00;2.60;;;;;;;;;;4348451;33;20087;-78
2022/05/28 06:12:02;;;;;;;7.43;1.87;;;;;;;;;;4348343;33;20027;-77
2022/05/28 06:14:34;;;;;;;7.75;1.83;;;;;;;;;;4349720;33;20054;-77
2022/05/28 06:16:59;;;;;;;9.00;1.92;;;;;;;;;;4349137;33;20031;-80
2022/05/28 06:19:47;;;;;;;7.62;1.92;;;;;;;;;;4348660;33;20071;-78
2022/05/28 06:22:29;;;;;;;11.20;2.87;;;;;;;;;;4330175;33;20052;-77
2022/05/28 06:24:55;;;;;;;10.05;2.10;;;;;;;;;;4348732;33;20051;-78
2022/05/28 06:27:23;;;;;;;11.48;2.10;;;;;;;;;;4349395;33;20046;-78
2022/05/28 06:29:52;;;;;;;8.18;1.90;;;;;;;;;;4348786;33;20028;-77
2022/05/28 06:32:36;;;;;;;10.75;2.05;;;;;;;;;;4348280;33;20055;-78
2022/05/28 06:35:37;;;;;;;13.68;2.47;;;;;;;;;;4333806;33;20062;-77
2022/05/28 06:38:05;;;;;;;9.70;2.40;;;;;;;;;;4317294;33;20052;-78
2022/05/28 06:40:51;;;;;;;9.90;2.12;;;;;;;;;;4333115;33;20036;-78
2022/05/28 06:43:23;;;;;;;9.27;2.30;;;;;;;;;;4332819;33;20020;-79
2022/05/28 06:45:55;;;;;;;8.30;2.10;;;;;;;;;;4332688;33;20050;-79
2022/05/28 06:48:56;;;;;;;7.68;1.98;;;;;;;;;;4333668;33;20065;-78
2022/05/28 06:51:21;;;;;;;12.98;1.98;;;;;;;;;;4329922;33;20033;-77
2022/05/28 06:53:48;;;;;;;14.43;2.40;;;;;;;;;;4332696;33;20054;-79
2022/05/28 06:56:17;;;;;;;14.95;2.22;;;;;;;;;;4333107;33;20032;-78
2022/05/28 06:58:51;;;;;;;12.60;2.05;;;;;;;;;;4332727;33;20031;-78
2022/05/28 07:01:30;;;;;;;;;;;;;;;;;;;;;
2022/05/28 07:03:55;;;;;;;11.00;2.90;;;;;;;;;;4342314;33;20120;-78
2022/05/28 07:06:34;;;;;;;;;;;;;;;;;;;;;
2022/05/28 07:09:18;;;;;;;7.55;1.83;;;;;;;;;;4337815;33;20062;-78
2022/05/28 07:11:43;;;;;;;14.45;2.62;;;;;;;;;;4347160;33;20027;-77
2022/05/28 07:14:08;;;;;;;12.65;2.53;;;;;;;;;;4347100;33;20389;-78
2022/05/28 07:22:32;;;;;;;8.07;1.90;;;;;;;;;;4287592;33;20048;-78
2022/05/28 07:24:57;;;;;;;10.52;2.22;;;;;;;;;;4336381;33;20072;-77
2022/05/28 07:27:30;;;;;;;;;;;;;;;;;;4347439;33;20422;-78
2022/05/28 07:33:19;;;;;;;15.38;2.33;;;;;;;;;;4278864;33;20060;-78
2022/05/28 07:36:08;;;;;;;10.75;2.58;;;;;;;;;;4332450;33;20048;-77
2022/05/28 07:38:43;;;;;;;9.10;2.08;;;;;;;;;;4325530;33;20024;-78
2022/05/28 07:41:19;;;;;;;6.32;1.92;;;;;;;;;;4332206;33;20432;-78
2022/05/28 07:43:48;;;;;;;12.70;2.22;;;;;;;;;;4332692;33;20077;-78
2022/05/28 07:46:18;;;;;;;11.65;2.40;;;;;;;;;;4332414;33;20411;-78
2022/05/28 07:48:44;;;;;;;12.68;2.72;;;;;;;;;;4332111;33;20048;-78
2022/05/28 07:51:09;;;;;;;8.05;2.08;;;;;;;;;;4331958;33;20063;-79
2022/05/28 07:53:34;;;;;;;;;;;;;;;;;;4331559;33;20079;-77
2022/05/28 07:56:01;;;;;;;10.45;2.12;;;;;;;;;;4331375;33;19943;-77
2022/05/28 07:58:34;;;;;;;7.87;2.03;;;;;;;;;;4332305;33;20028;-78
2022/05/28 08:01:02;;;;;;;20.35;3.20;;;;;;;;;;4331848;33;20024;-77
2022/05/28 08:03:29;;;;;;;14.25;2.70;;;;;;;;;;4338866;33;20031;-78
2022/05/28 08:06:05;;;;;;;;;;;;;;;;;;;;;
2022/05/28 08:08:30;;;;;;;14.13;2.55;;;;;;;;;;4346754;33;20461;-77
2022/05/28 08:10:58;;;;;;;11.30;2.35;;;;;;;;;;4346163;33;20020;-78
2022/05/28 08:13:24;;;;;;;14.65;2.58;;;;;;;;;;4346298;33;20047;-79
2022/05/28 08:15:50;;;;;;;12.73;2.33;;;;;;;;;;4346905;33;20397;-79
2022/05/28 08:18:16;;;;;;;11.30;2.05;;;;;;;;;;4346317;33;20113;-80
2022/05/28 08:23:26;;;;;;;13.93;2.83;;;;;;;;;;4346479;33;20054;-77
2022/05/28 08:25:51;;;;;;;10.57;2.30;;;;;;;;;;4346020;33;20024;-78
2022/05/28 08:28:20;;;;;;;8.27;2.28;;;;;;;;;;4346606;33;20300;-78
2022/05/28 08:31:00;;;;;;;10.32;2.37;;;;;;;;;;4346427;33;20110;-78
2022/05/28 08:33:26;;;;;;;6.35;2.45;;;;;;;;;;4345651;33;20378;-79
2022/05/28 08:35:51;;;;;;;9.23;1.98;;;;;;;;;;4332338;33;20035;-78
2022/05/28 08:38:26;;;;;;;11.07;2.80;;;;;;;;;;4345866;33;20433;-79
2022/05/28 08:41:09;;;;;;;;;;;;;;;;;;;;;
2022/05/28 08:43:45;;;;;;;6.57;1.98;;;;;;;;;;4345864;33;20048;-77
2022/05/28 08:46:12;;;;;;;10.82;2.08;;;;;;;;;;4345878;33;20473;-77
2022/05/28 08:48:48;;;;;;;10.75;2.25;;;;;;;;;;4345968;33;20065;-78
2022/05/28 08:51:20;;;;;;;9.27;2.33;;;;;;;;;;4345681;33;20480;-77
2022/05/28 08:53:52;;;;;;;8.20;2.10;;;;;;;;;;4332155;33;20064;-75
2022/05/28 08:56:22;;;;;;;14.35;2.20;;;;;;;;;;4347113;33;20410;-77
2022/05/28 08:58:51;;;;;;;7.82;1.75;;;;;;;;;;4345551;33;20020;-78
2022/05/28 09:01:19;;;;;;;5.50;1.65;;;;;;;;;;4345454;33;20118;-79
2022/05/28 09:03:50;;;;;;;12.07;2.33;;;;;;;;;;4332159;33;20048;-77
2022/05/28 09:06:24;;;;;;;5.75;1.62;;;;;;;;;;4344323;33;20067;-78
2022/05/28 09:08:51;;;;;;;9.82;1.77;;;;;;;;;;4346023;33;20400;-77
2022/05/28 09:11:20;;;;;;;7.62;1.95;;;;;;;;;;4345731;33;20097;-78
2022/05/28 09:13:53;;;;;;;9.85;1.75;;;;;;;;;;4344342;33;20090;-78
2022/05/28 09:16:21;;;;;;;13.50;3.62;;;;;;;;;;4332316;33;20045;-78
2022/05/28 09:18:47;;;;;;;8.18;2.20;;;;;;;;;;4345717;33;20062;-77
2022/05/28 09:24:47;;;;;;;4.35;1.70;;;;;;;;;;4345794;33;20078;-78
2022/05/28 09:27:31;;;;;;;8.83;2.07;;;;;;;;;;4345971;33;20069;-77
2022/05/28 09:30:13;;;;;;;6.72;1.70;;;;;;;;;;4346406;33;20127;-76
2022/05/28 09:32:46;;;;;;;7.75;2.22;;;;;;;;;;4345539;33;20107;-77
2022/05/28 09:35:11;;;;;;;6.72;2.20;;;;;;;;;;4345590;33;20023;-77
2022/05/28 09:37:40;;;;;;;8.18;1.95;;;;;;;;;;4345828;33;20027;-76
2022/05/28 09:40:30;;;;;;;9.82;3.22;;;;;;;;;;4345007;33;20416;-77
2022/05/28 09:43:31;;;;;;;7.68;2.12;;;;;;;;;;4332809;33;20085;-77
2022/05/28 09:46:19;;;;;;;8.95;2.00;;;;;;;;;;4344897;33;20028;-77
2022/05/28 09:49:05;;;;;;;7.87;1.75;;;;;;;;;;4345721;33;20062;-77
2022/05/28 09:51:49;;;;;;;6.72;2.15;;;;;;;;;;4345585;33;20066;-77
2022/05/28 09:54:30;;;;;;;5.40;1.85;;;;;;;;;;4346027;33;20027;-77
2022/05/28 09:57:01;;;;;;;6.47;1.80;;;;;;;;;;4345123;33;20101;-76
2022/05/28 09:59:42;;;;;;;6.47;2.03;;;;;;;;;;4345026;33;20077;-77
2022/05/28 10:02:18;;;;;;;7.28;1.80;;;;;;;;;;4331673;33;20032;-77
2022/05/28 10:05:00;;;;;;;6.47;1.85;;;;;;;;;;4332055;33;20051;-77
2022/05/28 10:07:30;;;;;;;5.82;1.80;;;;;;;;;;4345116;33;20055;-77
2022/05/28 10:09:55;;;;;;;7.47;1.73;;;;;;;;;;4345151;33;20090;-77
2022/05/28 10:12:28;;;;;;;10.40;1.90;;;;;;;;;;4345066;33;20055;-77
2022/05/28 10:15:15;;;;;;;11.10;2.70;;;;;;;;;;4345309;33;20023;-76
2022/05/28 10:17:55;;;;;;;10.73;2.15;;;;;;;;;;4344996;33;20031;-77
2022/05/28 10:20:24;;;;;;;9.82;2.17;;;;;;;;;;4347735;33;20031;-75
2022/05/28 10:22:54;;;;;;;7.90;2.00;;;;;;;;;;4347666;33;20032;-77
2022/05/28 10:25:28;;;;;;;11.98;2.35;;;;;;;;;;4334233;33;20038;-77
2022/05/28 10:27:54;;;;;;;8.65;3.00;;;;;;;;;;4348462;33;20028;-76
2022/05/28 10:30:31;;;;;;;12.10;2.28;;;;;;;;;;4346632;33;20386;-76
2022/05/28 10:32:57;;;;;;;9.23;2.62;;;;;;;;;;4347674;33;20050;-76
2022/05/28 10:35:28;;;;;;;7.32;1.92;;;;;;;;;;4348066;33;20028;-77
2022/05/28 10:38:05;;;;;;;9.50;2.15;;;;;;;;;;4347900;33;20027;-76
2022/05/28 10:40:30;;;;;;;;;;;;;;;;;;4348286;33;20078;-76
2022/05/28 10:43:00;;;;;;;8.52;2.85;;;;;;;;;;4347875;33;19982;-77
2022/05/28 10:45:35;;;;;;;11.02;2.83;;;;;;;;;;4348156;33;20201;-76
2022/05/28 10:48:03;;;;;;;8.82;1.90;;;;;;;;;;4347971;33;20394;-77
2022/05/28 10:54:00;;;;;;;7.18;2.55;;;;;;;;;;4347508;33;20087;-77
2022/05/28 10:56:45;;;;;;;8.07;1.75;;;;;;;;;;4347298;33;20092;-77
2022/05/28 10:59:17;;;;;;;14.43;2.37;;;;;;;;;;4348308;33;20398;-76
2022/05/28 11:01:52;;;;;;;4.97;2.20;;;;;;;;;;4348274;33;20039;-76
2022/05/28 11:04:34;;;;;;;;;;;;;;;;;;;;;
2022/05/28 11:08:08;;;;;;;8.48;1.80;;;;;;;;;;4347289;33;20028;-76
2022/05/28 11:10:13;;;;;;;7.25;1.98;;;;;;;;;;4341055;33;20473;-76
2022/05/28 11:13:04;;;;;;;6.82;2.08;;;;;;;;;;4347537;33;20059;-76
2022/05/28 11:15:29;;;;;;;9.50;2.00;;;;;;;;;;4347730;33;20024;-76
2022/05/28 11:18:17;;;;;;;5.78;1.70;;;;;;;;;;4347398;33;20478;-77
2022/05/28 11:21:01;;;;;;;8.65;1.98;;;;;;;;;;4347181;33;20048;-75
2022/05/28 11:23:45;;;;;;;9.63;2.17;;;;;;;;;;4347421;33;20074;-77
2022/05/28 11:26:17;;;;;;;11.63;3.03;;;;;;;;;;4346586;33;20031;-76
2022/05/28 11:28:54;;;;;;;16.80;2.42;;;;;;;;;;4346792;32;20052;-76
2022/05/28 11:31:29;;;;;;;7.25;2.05;;;;;;;;;;4346397;33;20409;-77
2022/05/28 11:33:56;;;;;;;11.93;2.50;;;;;;;;;;4332883;33;20016;-76
2022/05/28 11:37:09;;;;;;;6.72;2.22;;;;;;;;;;4332107;33;20074;-76
2022/05/28 11:39:33;;;;;;;;;;;;;;;;;;;;;
2022/05/28 11:42:29;;;;;;;8.27;2.10;;;;;;;;;;4332750;33;20032;-76
2022/05/28 11:44:58;;;;;;;6.85;2.20;;;;;;;;;;4331694;33;20032;-78
2022/05/28 11:47:38;;;;;;;6.22;1.80;;;;;;;;;;4332050;33;20058;-77
2022/05/28 11:53:04;;;;;;;7.18;2.20;;;;;;;;;;4331964;33;20083;-77
2022/05/28 11:55:32;;;;;;;12.02;2.47;;;;;;;;;;4330257;33;20024;-77
2022/05/28 11:58:00;;;;;;;11.15;2.87;;;;;;;;;;4331505;33;20036;-77
2022/05/28 12:00:27;;;;;;;9.45;2.53;;;;;;;;;;4333524;33;20090;-76
2022/05/28 12:02:58;;;;;;;6.47;2.12;;;;;;;;;;4341473;33;20051;-76
2022/05/28 12:05:25;;;;;;;11.05;2.53;;;;;;;;;;4346527;33;20107;-77
2022/05/28 12:08:02;;;;;;;11.95;3.20;;;;;;;;;;4346851;33;20031;-76
2022/05/28 12:10:51;;;;;;;12.48;2.40;;;;;;;;;;4346364;33;20031;-76
2022/05/28 12:13:32;;;;;;;8.13;2.30;;;;;;;;;;4334071;33;20088;-77
2022/05/28 12:19:36;;;;;;;7.40;1.98;;;;;;;;;;4346262;33;20043;-78
2022/05/28 12:22:11;;;;;;;6.40;1.58;;;;;;;;;;4347266;33;20027;-77
2022/05/28 12:24:47;;;;;;;8.25;1.90;;;;;;;;;;4346363;33;20101;-77
2022/05/28 12:27:21;;;;;;;9.32;1.98;;;;;;;;;;4345760;33;20053;-77
2022/05/28 12:30:11;;;;;;;9.50;2.67;;;;;;;;;;4346045;33;20086;-77
2022/05/28 12:32:48;;;;;;;7.00;2.22;;;;;;;;;;4346780;32;20090;-76
2022/05/28 12:35:16;;;;;;;13.18;2.80;;;;;;;;;;4344956;33;20024;-78
2022/05/28 12:38:14;;;;;;;9.82;2.15;;;;;;;;;;4345168;33;20027;-78
2022/05/28 12:41:00;;;;;;;12.40;3.30;;;;;;;;;;4345427;33;20074;-76
2022/05/28 12:43:38;;;;;;;8.35;2.70;;;;;;;;;;4346806;33;20031;-78
2022/05/28 12:46:34;;;;;;;9.13;2.53;;;;;;;;;;4346435;33;20028;-77
2022/05/28 12:49:38;;;;;;;;;;;;;;;;;;;;;
2022/05/28 12:55:29;;;;;;;11.52;3.08;;;;;;;;;;4340499;33;20089;-76
2022/05/28 12:58:04;;;;;;;10.05;2.40;;;;;;;;;;4346034;33;20020;-78
2022/05/28 13:00:34;;;;;;;5.65;1.85;;;;;;;;;;4346437;33;20374;-77
2022/05/28 13:03:10;;;;;;;4.97;1.77;;;;;;;;;;4345418;33;20328;-78
2022/05/28 13:05:42;;;;;;;9.43;3.45;;;;;;;;;;4345751;33;20461;-77
2022/05/28 13:08:09;;;;;;;5.47;2.20;;;;;;;;;;4345894;32;20027;-77
2022/05/28 13:10:35;;;;;;;8.15;1.87;;;;;;;;;;4345570;33;20041;-76
2022/05/28 13:13:15;;;;;;;5.40;1.75;;;;;;;;;;4345682;33;20382;-76
2022/05/28 13:15:49;;;;;;;8.63;2.58;;;;;;;;;;4331604;33;20035;-77
2022/05/28 13:18:30;;;;;;;9.70;2.75;;;;;;;;;;4345017;33;20019;-75
2022/05/28 13:21:14;;;;;;;7.45;2.12;;;;;;;;;;4345494;33;20039;-76
2022/05/28 13:23:48;;;;;;;9.60;2.55;;;;;;;;;;4345330;33;20390;-76
2022/05/28 13:26:21;;;;;;;9.13;3.05;;;;;;;;;;4347523;33;20027;-76
2022/05/28 13:28:58;;;;;;;9.75;2.50;;;;;;;;;;4345336;33;20129;-77
2022/05/28 13:31:42;;;;;;;;;;;;;;;;;;;;;
2022/05/28 13:34:18;;;;;;;9.40;2.10;;;;;;;;;;4345367;33;20054;-77
2022/05/28 13:36:55;;;;;;;8.65;2.12;;;;;;;;;;4345895;33;20046;-77
2022/05/28 13:39:24;;;;;;;7.57;1.95;;;;;;;;;;4346185;33;20089;-77
2022/05/28 13:41:49;;;;;;;7.03;2.12;;;;;;;;;;4345479;33;20098;-75
2022/05/28 13:47:38;;;;;;;;;;;;;;;;;;;;;
2022/05/28 13:50:05;;;;;;;11.90;2.90;;;;;;;;;;4336360;33;20066;-76
2022/05/28 13:52:31;;;;;;;7.20;2.08;;;;;;;;;;4331753;33;20032;-75
2022/05/28 13:55:45;;;;;;;;;;;;;;;;;;;;;
2022/05/28 14:01:49;;;;;;;7.65;2.58;;;;;;;;;;4347986;33;20054;-76
2022/05/28 14:07:27;;;;;;;8.25;2.53;;;;;;;;;;4331432;33;20501;-77
2022/05/28 14:09:52;;;;;;;10.77;2.90;;;;;;;;;;4347964;33;20079;-75
2022/05/28 14:12:42;;;;;;;7.28;1.73;;;;;;;;;;4348232;33;20028;-76
2022/05/28 14:15:33;;;;;;;6.87;2.30;;;;;;;;;;4347937;33;20418;-76
2022/05/28 14:17:59;;;;;;;9.10;3.05;;;;;;;;;;4346233;33;20054;-76
2022/05/28 14:20:34;;;;;;;11.30;2.22;;;;;;;;;;4348151;33;20365;-76
2022/05/28 14:23:00;;;;;;;11.02;2.47;;;;;;;;;;4348079;33;20024;-77
2022/05/28 14:25:28;;;;;;;14.20;2.55;;;;;;;;;;4348172;33;20063;-76
2022/05/28 14:31:48;;;;;;;6.82;2.47;;;;;;;;;;4322312;33;20043;-76
2022/05/28 14:34:22;;;;;;;5.95;2.00;;;;;;;;;;4348094;33;20024;-76
2022/05/28 14:36:50;;;;;;;7.65;2.50;;;;;;;;;;4334649;33;20037;-76
2022/05/28 14:39:16;;;;;;;10.57;2.25;;;;;;;;;;4347279;33;20023;-77
2022/05/28 14:42:11;;;;;;;9.23;2.00;;;;;;;;;;4347583;33;20066;-76
2022/05/28 14:44:37;;;;;;;9.38;2.20;;;;;;;;;;4347364;33;20055;-76
2022/05/28 14:47:51;;;;;;;;;;;;;;;;;;;;;
2022/05/28 14:50:28;;;;;;;7.22;2.05;;;;;;;;;;4348155;33;20031;-76
2022/05/28 14:52:57;;;;;;;8.85;2.03;;;;;;;;;;4347897;33;20058;-76
2022/05/28 14:55:33;;;;;;;5.00;1.67;;;;;;;;;;4347564;33;20081;-76
2022/05/28 15:01:26;;;;;;;4.57;1.60;;;;;;;;;;4339540;33;20024;-76
2022/05/28 15:03:56;;;;;;;7.95;2.17;;;;;;;;;;4346974;33;20039;-76
2022/05/28 15:06:23;;;;;;;8.50;2.00;;;;;;;;;;4345801;33;20016;-76
2022/05/28 15:09:10;;;;;;;;;;;;;;;;;;;;;
2022/05/28 15:12:00;;;;;;;6.50;1.98;;;;;;;;;;4347553;33;20346;-76
2022/05/28 15:14:33;;;;;;;6.53;1.75;;;;;;;;;;4347503;33;20101;-76
2022/05/28 15:16:58;;;;;;;10.13;2.95;;;;;;;;;;4347247;33;20409;-75
2022/05/28 15:19:24;;;;;;;11.73;2.55;;;;;;;;;;4358518;32;20138;-76
2022/05/28 15:21:52;;;;;;;8.45;2.25;;;;;;;;;;4347088;33;20044;-76
2022/05/28 15:24:17;;;;;;;5.87;1.92;;;;;;;;;;4346732;33;20055;-76
2022/05/28 15:26:43;;;;;;;5.87;1.98;;;;;;;;;;4346854;33;20358;-77
2022/05/28 15:29:11;;;;;;;6.62;2.03;;;;;;;;;;4346834;33;20044;-75
2022/05/28 15:31:37;;;;;;;4.55;1.75;;;;;;;;;;4347131;33;20036;-75
2022/05/28 15:34:11;;;;;;;7.75;2.17;;;;;;;;;;4347312;33;20032;-76
2022/05/28 15:39:26;;;;;;;9.00;2.60;;;;;;;;;;4347076;33;20484;-76
2022/05/28 15:41:53;;;;;;;10.88;2.37;;;;;;;;;;4347297;33;20082;-76
2022/05/28 15:44:18;;;;;;;4.50;1.70;;;;;;;;;;4346731;33;20036;-76
2022/05/28 15:46:43;;;;;;;11.30;3.33;;;;;;;;;;4346817;33;20078;-76
2022/05/28 15:49:12;;;;;;;9.30;2.17;;;;;;;;;;4346296;33;20132;-77
2022/05/28 15:51:37;;;;;;;11.35;2.30;;;;;;;;;;4344873;33;20032;-76
2022/05/28 15:54:05;;;;;;;9.27;2.45;;;;;;;;;;4346905;33;20027;-75
2022/05/28 15:56:38;;;;;;;12.07;2.58;;;;;;;;;;4346223;33;20396;-77
2022/05/28 15:59:03;;;;;;;6.68;1.92;;;;;;;;;;4347046;33;20089;-76
2022/05/28 16:01:29;;;;;;;10.48;2.83;;;;;;;;;;4357715;32;20036;-76
2022/05/28 16:03:56;;;;;;;7.85;2.28;;;;;;;;;;4346235;33;20415;-76
2022/05/28 16:06:23;;;;;;;9.52;2.03;;;;;;;;;;4346732;33;20035;-76
2022/05/28 16:08:51;;;;;;;7.10;2.45;;;;;;;;;;4346083;33;20062;-77
2022/05/28 16:11:20;;;;;;;7.35;1.98;;;;;;;;;;4346146;33;20102;-75
2022/05/28 16:13:46;;;;;;;6.72;2.65;;;;;;;;;;4346042;33;20234;-75
2022/05/28 16:16:12;;;;;;;7.55;2.00;;;;;;;;;;4345400;33;20027;-76
2022/05/28 16:18:38;;;;;;;7.50;2.22;;;;;;;;;;4346010;33;20093;-77
2022/05/28 16:21:03;;;;;;;8.02;2.12;;;;;;;;;;4346732;33;20039;-76
2022/05/28 16:23:29;;;;;;;8.90;2.70;;;;;;;;;;4346100;33;20443;-75
2022/05/28 16:25:54;;;;;;;8.00;2.80;;;;;;;;;;4346120;33;20039;-75
2022/05/28 16:28:35;;;;;;;9.15;2.67;;;;;;;;;;4346406;33;20023;-75
2022/05/28 16:31:13;;;;;;;10.23;2.67;;;;;;;;;;4345960;33;20082;-76
2022/05/28 16:33:46;;;;;;;6.43;2.10;;;;;;;;;;4346445;33;20063;-77
2022/05/28 16:36:11;;;;;;;10.55;2.12;;;;;;;;;;4346026;33;20045;-76
2022/05/28 16:41:40;;;;;;;6.78;1.90;;;;;;;;;;4346635;33;20050;-76
2022/05/28 16:44:09;;;;;;;8.57;2.05;;;;;;;;;;4346066;33;20101;-76
2022/05/28 16:46:35;;;;;;;9.60;2.15;;;;;;;;;;4346291;33;20055;-76
2022/05/28 16:49:00;;;;;;;11.65;2.25;;;;;;;;;;4345925;33;20440;-75
2022/05/28 16:51:48;;;;;;;10.40;2.00;;;;;;;;;;4345697;33;20362;-76
2022/05/28 16:54:17;;;;;;;10.52;2.87;;;;;;;;;;4345791;33;20103;-75
2022/05/28 16:56:43;;;;;;;9.88;2.55;;;;;;;;;;4345918;33;20036;-74
2022/05/28 16:59:12;;;;;;;8.85;2.28;;;;;;;;;;4345620;33;20050;-75
2022/05/28 17:01:38;;;;;;;10.55;2.42;;;;;;;;;;4346036;33;20062;-75
2022/05/28 17:04:03;;;;;;;13.07;2.90;;;;;;;;;;4343959;33;20052;-75
2022/05/28 17:06:44;;;;;;;10.95;2.58;;;;;;;;;;4345626;33;20061;-75
2022/05/28 17:09:14;;;;;;;14.25;2.53;;;;;;;;;;4345968;33;20054;-75
2022/05/28 17:11:40;;;;;;;8.82;3.03;;;;;;;;;;4346033;33;20058;-75
2022/05/28 17:14:09;;;;;;;10.73;4.28;;;;;;;;;;4345482;33;20071;-76
2022/05/28 17:16:35;;;;;;;10.85;3.35;;;;;;;;;;4345904;33;20444;-75
2022/05/28 17:19:03;;;;;;;9.48;1.98;;;;;;;;;;4345924;33;20036;-76
2022/05/28 17:21:31;;;;;;;14.32;2.58;;;;;;;;;;4345875;33;20057;-77
2022/05/28 17:23:56;;;;;;;8.13;2.20;;;;;;;;;;4346006;33;20102;-74
2022/05/28 17:26:22;;;;;;;5.68;1.60;;;;;;;;;;4346070;33;20043;-76
2022/05/28 17:28:56;;;;;;;7.12;2.78;;;;;;;;;;4346085;33;20040;-75
2022/05/28 17:31:27;;;;;;;6.82;2.30;;;;;;;;;;4345860;33;20031;-75
2022/05/28 17:33:52;;;;;;;9.32;2.12;;;;;;;;;;4345873;33;20035;-76
2022/05/28 17:36:18;;;;;;;7.97;1.98;;;;;;;;;;4345177;33;20050;-76
2022/05/28 17:38:45;;;;;;;9.27;2.12;;;;;;;;;;4345402;33;20032;-75
2022/05/28 17:41:11;;;;;;;8.93;2.28;;;;;;;;;;4345671;33;20354;-75
2022/05/28 17:43:40;;;;;;;8.10;2.35;;;;;;;;;;4345513;33;20094;-76
2022/05/28 17:46:07;;;;;;;6.12;1.67;;;;;;;;;;4345452;33;20039;-74
2022/05/28 17:48:41;;;;;;;10.20;2.62;;;;;;;;;;4345141;33;20362;-76
2022/05/28 17:51:20;;;;;;;7.45;1.75;;;;;;;;;;4345207;33;20460;-76